createdAt,value
2023-02-11T00:02:24.324Z,3.69
2023-02-11T00:07:33.155Z,3.70
2023-02-11T00:12:41.324Z,3.71
2023-02-11T00:17:49.239Z,3.72
2023-02-11T00:22:57.560Z,3.72
2023-02-11T00:28:05.738Z,3.72
2023-02-11T00:33:14.075Z,3.71
2023-02-11T00:38:22.661Z,3.70
2023-02-11T00:43:31.050Z,3.71
2023-02-11T00:48:39.056Z,3.70
2023-02-11T00:53:46.730Z,3.71
2023-02-11T00:58:54.924Z,3.71
2023-02-11T01:04:03.215Z,3.71
2023-02-11T01:09:11.282Z,3.69
2023-02-11T01:14:19.556Z,3.69
2023-02-11T01:19:28.230Z,3.68
2023-02-11T01:24:38.111Z,3.69
2023-02-11T01:29:48.522Z,3.70
2023-02-11T01:34:56.578Z,3.71
2023-02-11T01:40:05.448Z,3.71
2023-02-11T01:45:55.190Z,3.71
2023-02-11T01:51:07.109Z,3.71
2023-02-11T01:56:34.832Z,3.72
2023-02-11T02:01:48.662Z,3.72
2023-02-11T02:07:02.573Z,3.73
2023-02-11T02:12:11.761Z,3.73
2023-02-11T02:17:37.286Z,3.73
2023-02-11T02:23:09.559Z,3.73
2023-02-11T02:28:36.901Z,3.73
2023-02-11T02:33:56.035Z,3.73
2023-02-11T02:39:07.670Z,3.73
2023-02-11T02:44:16.087Z,3.74
2023-02-11T02:49:24.480Z,3.73
2023-02-11T02:55:05.119Z,3.73
2023-02-11T03:00:33.208Z,3.73
2023-02-11T03:05:50.851Z,3.72
2023-02-11T03:11:01.110Z,3.73
2023-02-11T03:16:16.102Z,3.73
2023-02-11T03:21:24.877Z,3.72
2023-02-11T03:26:38.723Z,3.72
2023-02-11T03:31:58.588Z,3.71
2023-02-11T03:37:14.555Z,3.70
2023-02-11T03:42:25.647Z,3.70
2023-02-11T03:47:37.720Z,3.70
2023-02-11T03:52:47.144Z,3.69
2023-02-11T03:57:55.423Z,3.68
2023-02-11T04:03:03.297Z,3.68
2023-02-11T04:08:11.648Z,3.67
2023-02-11T04:13:20.404Z,3.66
2023-02-11T04:18:29.088Z,3.65
2023-02-11T04:23:36.885Z,3.62
2023-02-11T04:28:44.539Z,3.60
2023-02-11T04:33:52.726Z,3.57
2023-02-11T04:39:00.413Z,3.55
2023-02-11T04:44:08.669Z,3.50
2023-02-11T04:49:17.784Z,3.46
2023-02-11T04:54:25.612Z,3.42
2023-02-11T04:59:33.465Z,3.37
2023-02-11T05:04:41.530Z,3.34
2023-02-11T05:09:49.566Z,3.31
2023-02-11T05:14:57.198Z,3.28
2023-02-11T05:20:06.040Z,3.25
2023-02-11T05:25:14.137Z,3.22
2023-02-11T05:30:22.652Z,3.19
2023-02-11T05:35:30.715Z,3.16
2023-02-11T05:40:38.281Z,3.12
2023-02-11T05:45:46.031Z,3.10
2023-02-11T05:50:54.245Z,3.09
2023-02-11T05:56:02.224Z,3.07
2023-02-11T06:01:10.600Z,3.05
2023-02-11T06:06:18.835Z,3.04
2023-02-11T06:11:27.539Z,3.03
2023-02-11T06:16:35.528Z,3.03
2023-02-11T06:21:44.620Z,3.02
2023-02-11T06:26:52.438Z,3.03
2023-02-11T06:32:00.682Z,3.02
2023-02-11T06:37:08.642Z,3.03
2023-02-11T06:42:16.602Z,3.04
2023-02-11T06:47:24.454Z,3.05
2023-02-11T06:52:32.632Z,3.05
2023-02-11T06:57:40.913Z,3.05
2023-02-11T07:02:48.718Z,3.07
2023-02-11T07:07:56.606Z,3.08
2023-02-11T07:13:05.048Z,3.09
2023-02-11T07:18:14.612Z,3.10
2023-02-11T07:23:23.174Z,3.10
2023-02-11T07:28:31.074Z,3.12
2023-02-11T07:33:39.638Z,3.13
2023-02-11T07:38:48.071Z,3.13
2023-02-11T07:43:56.043Z,3.13
2023-02-11T07:49:04.170Z,3.15
2023-02-11T07:54:12.249Z,3.16
2023-02-11T07:59:20.284Z,3.19
2023-02-11T08:04:28.363Z,3.22
2023-02-11T08:09:36.205Z,3.25
2023-02-11T08:14:44.217Z,3.28
2023-02-11T08:19:51.905Z,3.30
2023-02-11T08:25:00.439Z,3.30
2023-02-11T08:30:09.536Z,3.32
2023-02-11T08:35:17.586Z,3.33
2023-02-11T08:40:25.911Z,3.34
2023-02-11T08:45:34.516Z,3.37
2023-02-11T08:50:44.187Z,3.37
2023-02-11T08:55:54.929Z,3.38
2023-02-11T09:01:03.727Z,3.41
2023-02-11T09:06:13.082Z,3.43
2023-02-11T09:11:24.255Z,3.45
2023-02-11T09:16:33.668Z,3.48
2023-02-11T09:21:41.960Z,3.51
2023-02-11T09:26:50.075Z,3.54
2023-02-11T09:31:58.559Z,3.57
2023-02-11T09:37:06.782Z,3.60
2023-02-11T09:42:44.546Z,3.63
2023-02-11T09:47:57.820Z,3.67
2023-02-11T09:53:12.620Z,3.72
2023-02-11T09:58:26.964Z,3.76
2023-02-11T10:04:07.137Z,3.81
2023-02-11T10:09:30.379Z,3.83
2023-02-11T10:15:03.703Z,3.87
2023-02-11T10:20:28.925Z,3.92
2023-02-11T10:25:40.707Z,3.94
2023-02-11T10:30:58.989Z,3.97
2023-02-11T10:36:09.409Z,4.00
2023-02-11T10:41:23.763Z,4.02
2023-02-11T10:46:35.364Z,4.06
2023-02-11T10:51:43.645Z,4.10
2023-02-11T10:56:54.038Z,4.13
2023-02-11T11:02:08.552Z,4.15
2023-02-11T11:07:23.616Z,4.18
2023-02-11T11:12:48.779Z,4.21
2023-02-11T11:18:21.863Z,4.24
2023-02-11T11:23:32.324Z,4.29
2023-02-11T11:28:52.591Z,4.31
2023-02-11T11:34:02.467Z,4.33
2023-02-11T11:39:25.609Z,4.34
2023-02-11T11:44:36.008Z,4.36
2023-02-11T11:49:47.260Z,4.39
2023-02-11T11:55:02.614Z,4.42
2023-02-11T12:00:19.959Z,4.45
2023-02-11T12:05:37.500Z,4.48
2023-02-11T12:11:10.373Z,4.52
2023-02-11T12:16:28.517Z,4.54
2023-02-11T12:21:47.701Z,4.56
2023-02-11T12:27:01.429Z,4.58
2023-02-11T12:32:28.462Z,4.62
2023-02-11T12:37:51.600Z,4.65
2023-02-11T12:43:21.215Z,4.68
2023-02-11T12:48:57.298Z,4.73
2023-02-11T12:54:26.302Z,4.77
2023-02-11T12:59:47.533Z,4.81
2023-02-11T13:04:59.452Z,4.85
2023-02-11T13:10:25.212Z,4.89
2023-02-11T13:15:35.515Z,4.93
2023-02-11T13:20:50.206Z,4.96
2023-02-11T13:26:05.484Z,4.98
2023-02-11T13:31:16.902Z,5.00
2023-02-11T13:36:27.694Z,5.03
2023-02-11T13:41:38.143Z,5.06
2023-02-11T13:47:01.843Z,5.09
2023-02-11T13:52:23.975Z,5.12
2023-02-11T13:57:39.777Z,5.15
2023-02-11T14:03:25.247Z,5.19
2023-02-11T14:08:51.081Z,5.23
2023-02-11T14:14:18.970Z,5.27
2023-02-11T14:19:37.847Z,5.31
2023-02-11T14:25:01.302Z,5.34
2023-02-11T14:30:25.841Z,5.37
2023-02-11T14:35:46.361Z,5.41
2023-02-11T14:41:04.008Z,5.43
2023-02-11T14:46:12.752Z,5.46
2023-02-11T14:51:26.276Z,5.50
2023-02-11T14:56:36.700Z,5.54
2023-02-11T15:01:48.310Z,5.57
2023-02-11T15:06:59.730Z,5.60
2023-02-11T15:12:18.460Z,5.64
2023-02-11T15:17:31.589Z,5.67
2023-02-11T15:22:41.968Z,5.61
2023-02-11T15:27:52.107Z,5.57
2023-02-11T15:33:03.665Z,5.55
2023-02-11T15:38:15.761Z,5.56
2023-02-11T15:43:24.071Z,5.57
2023-02-11T15:48:39.626Z,5.58
2023-02-11T15:53:50.716Z,5.59
2023-02-11T15:59:02.664Z,5.61
2023-02-11T16:04:21.386Z,5.63
2023-02-11T16:09:35.557Z,5.64
2023-02-11T16:14:44.805Z,5.65
2023-02-11T16:19:55.623Z,5.67
2023-02-11T16:25:04.178Z,5.67
2023-02-11T16:30:29.624Z,5.68
2023-02-11T16:35:37.965Z,5.68
2023-02-11T16:40:49.698Z,5.68
2023-02-11T16:46:00.269Z,5.68
2023-02-11T16:51:10.121Z,5.67
2023-02-11T16:56:19.691Z,5.67
2023-02-11T17:01:27.254Z,5.67
2023-02-11T17:06:35.384Z,5.67
2023-02-11T17:11:43.891Z,5.66
2023-02-11T17:16:52.375Z,5.67
2023-02-11T17:22:00.685Z,5.66
2023-02-11T17:27:11.351Z,5.65
2023-02-11T17:32:19.984Z,5.64
2023-02-11T17:37:28.922Z,5.61
2023-02-11T17:42:39.340Z,5.58
2023-02-11T17:47:49.543Z,5.52
2023-02-11T17:52:58.977Z,5.46
2023-02-11T17:58:07.663Z,5.38
2023-02-11T18:03:16.260Z,5.29
2023-02-11T18:08:24.347Z,5.19
2023-02-11T18:13:32.972Z,5.09
2023-02-11T18:18:41.245Z,4.99
2023-02-11T18:23:49.861Z,4.88
2023-02-11T18:29:00.513Z,4.78
2023-02-11T18:34:11.027Z,4.69
2023-02-11T18:39:19.868Z,4.61
2023-02-11T18:44:29.248Z,4.69
2023-02-11T18:49:37.784Z,4.76
2023-02-11T18:54:46.116Z,4.68
2023-02-11T18:59:53.855Z,4.48
2023-02-11T19:05:02.514Z,4.33
2023-02-11T19:10:11.584Z,4.20
2023-02-11T19:15:20.098Z,4.08
2023-02-11T19:20:27.667Z,3.96
2023-02-11T19:25:36.725Z,3.85
2023-02-11T19:30:45.390Z,3.75
2023-02-11T19:35:53.847Z,3.69
2023-02-11T19:41:02.072Z,3.62
2023-02-11T19:46:11.677Z,3.55
2023-02-11T19:51:20.812Z,3.47
2023-02-11T19:56:30.058Z,3.40
2023-02-11T20:01:38.665Z,3.35
2023-02-11T20:06:49.599Z,3.28
2023-02-11T20:11:58.800Z,3.22
2023-02-11T20:17:07.883Z,3.16
2023-02-11T20:22:16.842Z,3.10
2023-02-11T20:27:26.075Z,3.04
2023-02-11T20:32:38.875Z,2.99
2023-02-11T20:37:48.010Z,2.94
2023-02-11T20:42:57.145Z,2.90
2023-02-11T20:48:07.026Z,2.88
2023-02-11T20:53:16.006Z,2.85
2023-02-11T20:58:24.526Z,2.82
2023-02-11T21:03:33.423Z,2.81
2023-02-11T21:08:41.832Z,2.78
2023-02-11T21:13:51.704Z,2.75
2023-02-11T21:19:00.935Z,2.73
2023-02-11T21:24:10.428Z,2.70
2023-02-11T21:29:18.971Z,2.67
2023-02-11T21:34:28.092Z,2.65
2023-02-11T21:39:36.446Z,2.62
2023-02-11T21:44:47.388Z,2.60
2023-02-11T21:49:56.087Z,2.59
2023-02-11T21:55:03.649Z,2.57
2023-02-11T22:00:13.860Z,2.56
2023-02-11T22:05:22.127Z,2.55
2023-02-11T22:10:29.630Z,2.54
2023-02-11T22:15:37.228Z,2.53
2023-02-11T22:20:45.534Z,2.52
2023-02-11T22:25:54.323Z,2.51
2023-02-11T22:31:02.924Z,2.50
2023-02-11T22:36:15.887Z,2.49
2023-02-11T22:41:24.840Z,2.48
2023-02-11T22:46:33.311Z,2.46
2023-02-11T22:51:42.398Z,2.44
2023-02-11T22:56:54.143Z,2.42
2023-02-11T23:02:02.702Z,2.40
2023-02-11T23:07:12.555Z,2.37
2023-02-11T23:12:20.626Z,2.35
2023-02-11T23:17:29.340Z,2.32
2023-02-11T23:22:39.333Z,2.29
2023-02-11T23:27:47.472Z,2.27
2023-02-11T23:32:56.655Z,2.25
2023-02-11T23:38:04.821Z,2.23
2023-02-11T23:43:13.155Z,2.21
2023-02-11T23:48:21.762Z,2.20
2023-02-11T23:53:30.606Z,2.19
2023-02-11T23:58:38.849Z,2.19
